createdAt,value
2018-06-18T00:00:47.073Z,16.99
2018-06-18T00:01:47.071Z,16.91
2018-06-18T00:02:47.072Z,16.97
2018-06-18T00:03:47.069Z,16.96
2018-06-18T00:04:47.068Z,16.94
2018-06-18T00:05:47.068Z,17.04
2018-06-18T00:06:47.070Z,16.99
2018-06-18T00:07:47.066Z,16.99
2018-06-18T00:08:47.064Z,17.04
2018-06-18T00:09:47.061Z,16.94
2018-06-18T00:10:47.063Z,17.05
2018-06-18T00:11:47.058Z,16.94
2018-06-18T00:12:47.057Z,17.01
2018-06-18T00:13:47.057Z,16.99
2018-06-18T00:14:47.055Z,16.99
2018-06-18T00:15:47.054Z,16.99
2018-06-18T00:16:47.053Z,16.97
2018-06-18T00:17:47.054Z,16.99
2018-06-18T00:18:47.051Z,17.02
2018-06-18T00:19:47.052Z,16.94
2018-06-18T00:20:47.042Z,17.04
2018-06-18T00:21:47.048Z,16.96
2018-06-18T00:22:47.045Z,16.94
2018-06-18T00:23:47.046Z,16.96
2018-06-18T00:24:47.040Z,17.02
2018-06-18T00:25:47.043Z,16.94
2018-06-18T00:26:47.040Z,16.99
2018-06-18T00:27:47.040Z,17.02
2018-06-18T00:28:47.042Z,17.05
2018-06-18T00:29:47.035Z,16.91
2018-06-18T00:30:47.035Z,17.02
2018-06-18T00:31:47.036Z,16.99
2018-06-18T00:32:47.031Z,16.99
2018-06-18T00:33:47.031Z,16.96
2018-06-18T00:34:47.030Z,16.94
2018-06-18T00:35:47.030Z,16.96
2018-06-18T00:36:47.028Z,16.94
2018-06-18T00:37:47.026Z,16.97
2018-06-18T00:38:47.026Z,16.94
2018-06-18T00:39:47.022Z,16.97
2018-06-18T00:40:47.023Z,16.93
2018-06-18T00:41:47.020Z,16.93
2018-06-18T00:42:47.020Z,16.93
2018-06-18T00:43:47.019Z,16.87
2018-06-18T00:44:47.015Z,16.86
2018-06-18T00:45:47.012Z,16.86
2018-06-18T00:46:47.014Z,16.83
2018-06-18T00:47:47.013Z,16.81
2018-06-18T00:48:47.011Z,16.87
2018-06-18T00:49:47.009Z,16.76
2018-06-18T00:50:47.009Z,16.78
2018-06-18T00:51:47.004Z,16.79
2018-06-18T00:52:47.005Z,16.79
2018-06-18T00:53:47.005Z,16.76
2018-06-18T00:54:47.003Z,16.91
2018-06-18T00:55:47.005Z,16.83
2018-06-18T00:56:47.000Z,16.84
2018-06-18T00:57:46.993Z,16.78
2018-06-18T00:58:47.000Z,16.86
2018-06-18T00:59:47.001Z,16.81
2018-06-18T01:00:46.996Z,16.86
2018-06-18T01:01:47.007Z,16.79
2018-06-18T01:02:46.991Z,16.91
2018-06-18T01:03:46.994Z,16.78
2018-06-18T01:04:46.991Z,16.75
2018-06-18T01:05:46.988Z,16.75
2018-06-18T01:06:46.988Z,16.75
2018-06-18T01:07:46.986Z,16.79
2018-06-18T01:08:46.984Z,16.74
2018-06-18T01:09:46.984Z,16.74
2018-06-18T01:10:46.982Z,16.83
2018-06-18T01:11:46.981Z,16.84
2018-06-18T01:12:46.979Z,16.87
2018-06-18T01:13:46.979Z,16.83
2018-06-18T01:14:46.981Z,16.89
2018-06-18T01:15:46.977Z,16.87
2018-06-18T01:16:46.971Z,16.84
2018-06-18T01:17:46.972Z,16.87
2018-06-18T01:18:46.969Z,16.81
2018-06-18T01:19:50.455Z,16.84
2018-06-18T01:20:46.967Z,16.86
2018-06-18T01:21:46.966Z,16.84
2018-06-18T01:22:46.966Z,16.76
2018-06-18T01:23:46.963Z,16.76
2018-06-18T01:24:46.961Z,16.79
2018-06-18T01:25:46.962Z,16.72
2018-06-18T01:26:46.959Z,16.76
2018-06-18T01:27:46.961Z,16.79
2018-06-18T01:28:46.956Z,16.78
2018-06-18T01:29:46.954Z,16.78
2018-06-18T01:30:46.954Z,16.81
2018-06-18T01:31:46.952Z,16.78
2018-06-18T01:32:46.950Z,16.75
2018-06-18T01:33:46.950Z,16.71
2018-06-18T01:34:46.950Z,16.75
2018-06-18T01:35:46.952Z,16.81
2018-06-18T01:36:46.944Z,16.78
2018-06-18T01:37:46.944Z,16.76
2018-06-18T01:38:46.944Z,16.75
2018-06-18T01:39:46.942Z,16.76
2018-06-18T01:40:46.939Z,16.76
2018-06-18T01:41:46.938Z,16.83
2018-06-18T01:42:46.939Z,16.79
2018-06-18T01:43:46.935Z,16.72
2018-06-18T01:44:46.934Z,16.72
2018-06-18T01:45:46.932Z,16.74
2018-06-18T01:46:46.929Z,16.72
2018-06-18T01:47:46.928Z,16.75
2018-06-18T01:48:46.927Z,16.69
2018-06-18T01:49:46.927Z,16.66
2018-06-18T01:50:46.924Z,16.71
2018-06-18T01:51:46.922Z,16.72
2018-06-18T01:52:46.920Z,16.66
2018-06-18T01:53:46.920Z,16.64
2018-06-18T01:54:46.920Z,16.69
2018-06-18T01:55:46.918Z,16.65
2018-06-18T01:56:46.916Z,16.74
2018-06-18T01:57:46.915Z,16.71
2018-06-18T01:58:46.912Z,16.74
2018-06-18T01:59:46.911Z,16.76
2018-06-18T02:00:46.909Z,16.71
2018-06-18T02:01:46.908Z,16.72
2018-06-18T02:02:46.907Z,16.74
2018-06-18T02:03:46.904Z,16.78
2018-06-18T02:04:46.902Z,16.75
2018-06-18T02:05:46.902Z,16.81
2018-06-18T02:06:46.902Z,16.81
2018-06-18T02:07:46.899Z,16.79
2018-06-18T02:08:46.906Z,16.72
2018-06-18T02:09:46.897Z,16.71
2018-06-18T02:10:46.894Z,16.69
2018-06-18T02:11:46.894Z,16.64
2018-06-18T02:12:46.891Z,16.69
2018-06-18T02:13:46.889Z,16.75
2018-06-18T02:14:46.888Z,16.72
2018-06-18T02:15:46.889Z,16.76
2018-06-18T02:16:46.885Z,16.76
2018-06-18T02:17:46.884Z,16.68
2018-06-18T02:18:46.883Z,16.65
2018-06-18T02:19:46.882Z,16.69
2018-06-18T02:20:46.881Z,16.64
2018-06-18T02:21:46.879Z,16.71
2018-06-18T02:22:46.877Z,16.66
2018-06-18T02:23:46.877Z,16.69
2018-06-18T02:24:46.874Z,16.72
2018-06-18T02:25:46.873Z,16.71
2018-06-18T02:26:46.871Z,16.71
2018-06-18T02:27:46.870Z,16.72
2018-06-18T02:28:46.870Z,16.71
2018-06-18T02:29:46.866Z,16.66
2018-06-18T02:30:46.865Z,16.66
2018-06-18T02:31:46.865Z,16.71
2018-06-18T02:32:46.863Z,16.58
2018-06-18T02:33:46.860Z,16.64
2018-06-18T02:34:46.860Z,16.50
2018-06-18T02:35:46.857Z,16.43
2018-06-18T02:36:46.856Z,16.43
2018-06-18T02:37:46.855Z,16.46
2018-06-18T02:38:46.855Z,16.41
2018-06-18T02:39:46.852Z,16.46
2018-06-18T02:40:46.850Z,16.36
2018-06-18T02:41:46.852Z,16.35
2018-06-18T02:42:46.848Z,16.42
2018-06-18T02:43:46.845Z,16.42
2018-06-18T02:44:46.844Z,16.42
2018-06-18T02:45:46.842Z,16.56
2018-06-18T02:46:46.841Z,16.50
2018-06-18T02:47:46.841Z,16.50
2018-06-18T02:48:46.837Z,16.51
2018-06-18T02:49:46.837Z,16.51
2018-06-18T02:50:46.836Z,16.49
2018-06-18T02:51:46.833Z,16.51
2018-06-18T02:52:46.832Z,16.60
2018-06-18T02:53:46.829Z,16.56
2018-06-18T02:54:46.827Z,16.53
2018-06-18T02:55:46.826Z,16.50
2018-06-18T02:56:46.827Z,16.53
2018-06-18T02:57:46.823Z,16.49
2018-06-18T02:58:46.821Z,16.54
2018-06-18T02:59:46.820Z,16.47
2018-06-18T03:00:46.818Z,16.39
2018-06-18T03:01:46.816Z,16.38
2018-06-18T03:02:46.814Z,16.42
2018-06-18T03:03:46.814Z,16.31
2018-06-18T03:04:46.815Z,16.38
2018-06-18T03:05:46.809Z,16.38
2018-06-18T03:06:46.809Z,16.35
2018-06-18T03:07:46.808Z,16.33
2018-06-18T03:08:46.806Z,16.26
2018-06-18T03:09:46.803Z,16.29
2018-06-18T03:10:46.802Z,16.29
2018-06-18T03:11:46.800Z,16.12
2018-06-18T03:12:46.799Z,16.05
2018-06-18T03:13:46.801Z,15.98
2018-06-18T03:14:46.795Z,16.04
2018-06-18T03:15:46.793Z,16.04
2018-06-18T03:16:46.791Z,16.01
2018-06-18T03:17:46.790Z,16.05
2018-06-18T03:18:46.789Z,16.05
2018-06-18T03:19:46.788Z,16.02
2018-06-18T03:20:46.784Z,16.13
2018-06-18T03:21:46.782Z,16.10
2018-06-18T03:22:46.780Z,16.12
2018-06-18T03:23:46.780Z,16.12
2018-06-18T03:24:46.776Z,16.17
2018-06-18T03:25:46.779Z,16.05
2018-06-18T03:26:46.787Z,16.10
2018-06-18T03:27:46.771Z,16.16
2018-06-18T03:28:46.768Z,16.12
2018-06-18T03:29:46.767Z,16.13
2018-06-18T03:30:46.767Z,16.16
2018-06-18T03:31:46.769Z,16.16
2018-06-18T03:32:46.764Z,16.26
2018-06-18T03:33:46.764Z,16.21
2018-06-18T03:34:46.758Z,16.16
2018-06-18T03:35:46.757Z,16.21
2018-06-18T03:36:46.756Z,16.23
2018-06-18T03:37:46.754Z,16.26
2018-06-18T03:38:46.751Z,16.28
2018-06-18T03:39:46.748Z,16.28
2018-06-18T03:40:46.746Z,16.28
2018-06-18T03:41:46.745Z,16.28
2018-06-18T03:42:46.743Z,16.24
2018-06-18T03:43:46.742Z,16.28
2018-06-18T03:44:46.741Z,16.35
2018-06-18T03:45:46.737Z,16.28
2018-06-18T03:46:46.737Z,16.33
2018-06-18T03:47:46.735Z,16.26
2018-06-18T03:48:46.732Z,16.28
2018-06-18T03:49:46.730Z,16.32
2018-06-18T03:50:46.729Z,16.36
2018-06-18T03:51:46.727Z,16.36
2018-06-18T03:52:46.726Z,16.32
2018-06-18T03:53:46.725Z,16.32
2018-06-18T03:54:46.721Z,16.39
2018-06-18T03:55:46.719Z,16.23
2018-06-18T03:56:46.721Z,16.28
2018-06-18T03:57:46.716Z,16.36
2018-06-18T03:58:46.711Z,16.36
2018-06-18T03:59:46.713Z,16.28
2018-06-18T04:00:46.711Z,16.31
2018-06-18T04:01:46.708Z,16.33
2018-06-18T04:02:46.709Z,16.31
2018-06-18T04:03:46.707Z,16.35
2018-06-18T04:04:46.704Z,16.28
2018-06-18T04:05:46.702Z,16.32
2018-06-18T04:06:46.704Z,16.41
2018-06-18T04:07:46.699Z,16.36
2018-06-18T04:08:46.697Z,16.35
2018-06-18T04:09:46.695Z,16.32
2018-06-18T04:10:46.709Z,16.33
2018-06-18T04:11:46.692Z,16.38
2018-06-18T04:12:46.694Z,16.39
2018-06-18T04:13:46.689Z,16.42
2018-06-18T04:14:46.688Z,16.42
2018-06-18T04:15:46.684Z,16.42
2018-06-18T04:16:46.682Z,16.53
2018-06-18T04:17:46.690Z,16.50
2018-06-18T04:18:46.679Z,16.50
2018-06-18T04:19:46.685Z,16.61
2018-06-18T04:20:46.677Z,16.57
2018-06-18T04:21:46.680Z,16.54
2018-06-18T04:22:46.674Z,16.57
2018-06-18T04:23:46.676Z,16.64
2018-06-18T04:24:46.692Z,16.69
2018-06-18T04:25:46.670Z,16.66
2018-06-18T04:26:46.669Z,16.68
2018-06-18T04:27:46.667Z,16.76
2018-06-18T04:28:46.665Z,16.79
2018-06-18T04:29:46.663Z,16.75
2018-06-18T04:30:46.661Z,16.72
2018-06-18T04:31:46.660Z,16.83
2018-06-18T04:32:46.657Z,16.74
2018-06-18T04:33:46.656Z,16.74
2018-06-18T04:34:46.655Z,16.75
2018-06-18T04:35:46.654Z,16.75
2018-06-18T04:36:46.651Z,16.74
2018-06-18T04:37:46.670Z,16.81
2018-06-18T04:38:46.652Z,16.72
2018-06-18T04:39:46.649Z,16.68
2018-06-18T04:40:46.645Z,16.66
2018-06-18T04:41:46.643Z,16.66
2018-06-18T04:42:46.642Z,16.64
2018-06-18T04:43:46.643Z,16.66
2018-06-18T04:44:46.687Z,16.71
2018-06-18T04:45:46.637Z,16.61
2018-06-18T04:46:46.640Z,16.65
2018-06-18T04:47:46.635Z,16.64
2018-06-18T04:48:46.633Z,16.54
2018-06-18T04:49:46.631Z,16.58
2018-06-18T04:50:46.629Z,16.57
2018-06-18T04:51:46.629Z,16.54
2018-06-18T04:52:46.629Z,16.60
2018-06-18T04:53:46.624Z,16.58
2018-06-18T04:54:46.624Z,16.56
2018-06-18T04:55:46.621Z,16.56
2018-06-18T04:56:46.637Z,16.35
2018-06-18T04:57:46.620Z,16.35
2018-06-18T04:58:46.618Z,16.42
2018-06-18T04:59:46.613Z,16.41
2018-06-18T05:00:46.613Z,16.36
2018-06-18T05:01:46.614Z,16.39
2018-06-18T05:02:46.611Z,16.41
2018-06-18T05:03:46.611Z,16.39
2018-06-18T05:04:46.608Z,16.36
2018-06-18T05:05:46.606Z,16.41
2018-06-18T05:06:46.605Z,16.31
2018-06-18T05:07:46.607Z,16.35
2018-06-18T05:08:46.603Z,16.28
2018-06-18T05:09:46.600Z,16.28
2018-06-18T05:10:46.599Z,16.32
2018-06-18T05:11:46.602Z,16.32
2018-06-18T05:12:46.596Z,16.33
2018-06-18T05:13:46.593Z,16.31
2018-06-18T05:14:46.593Z,16.31
2018-06-18T05:15:46.591Z,16.28
2018-06-18T05:16:46.589Z,16.29
2018-06-18T05:17:46.589Z,16.36
2018-06-18T05:18:46.590Z,16.38
2018-06-18T05:19:46.585Z,16.32
2018-06-18T05:20:46.618Z,16.31
2018-06-18T05:21:46.585Z,16.26
2018-06-18T05:22:46.585Z,16.38
2018-06-18T05:23:46.580Z,16.51
2018-06-18T05:24:46.574Z,16.65
2018-06-18T05:25:46.574Z,16.79
2018-06-18T05:26:46.575Z,16.93
2018-06-18T05:27:46.573Z,17.08
2018-06-18T05:28:46.567Z,17.26
2018-06-18T05:29:46.569Z,17.38
2018-06-18T05:30:46.566Z,17.34
2018-06-18T05:31:46.566Z,17.51
2018-06-18T05:32:46.562Z,17.67
2018-06-18T05:33:46.562Z,17.95
2018-06-18T05:34:46.562Z,17.87
2018-06-18T05:35:46.563Z,18.00
2018-06-18T05:36:46.558Z,17.95
2018-06-18T05:37:46.554Z,18.00
2018-06-18T05:38:46.554Z,18.03
2018-06-18T05:39:46.552Z,18.20
2018-06-18T05:40:46.554Z,18.41
2018-06-18T05:41:46.549Z,18.28
2018-06-18T05:42:46.547Z,18.45
2018-06-18T05:43:46.548Z,18.23
2018-06-18T05:44:46.543Z,18.01
2018-06-18T05:45:46.544Z,17.80
2018-06-18T05:46:46.541Z,17.72
2018-06-18T05:47:46.544Z,17.82
2018-06-18T05:48:46.539Z,17.87
2018-06-18T05:49:46.537Z,17.80
2018-06-18T05:50:46.568Z,17.85
2018-06-18T05:51:46.535Z,17.89
2018-06-18T05:52:46.531Z,17.78
2018-06-18T05:53:46.531Z,17.90
2018-06-18T05:54:46.529Z,17.90
2018-06-18T05:55:46.530Z,17.98
2018-06-18T05:56:46.526Z,18.03
2018-06-18T05:57:46.527Z,18.10
2018-06-18T05:58:46.528Z,18.23
2018-06-18T05:59:46.523Z,18.15
2018-06-18T06:00:46.521Z,18.18
2018-06-18T06:01:46.521Z,18.07
2018-06-18T06:02:46.521Z,18.13
2018-06-18T06:03:46.517Z,18.16
2018-06-18T06:04:46.515Z,18.18
2018-06-18T06:05:46.514Z,18.10
2018-06-18T06:06:46.513Z,18.10
2018-06-18T06:07:46.512Z,18.10
2018-06-18T06:08:46.509Z,18.19
2018-06-18T06:09:46.508Z,18.15
2018-06-18T06:10:46.509Z,18.20
2018-06-18T06:11:46.508Z,18.16
2018-06-18T06:12:46.519Z,18.22
2018-06-18T06:13:46.537Z,18.29
2018-06-18T06:14:46.503Z,18.34
2018-06-18T06:15:46.501Z,18.35
2018-06-18T06:16:46.537Z,18.38
2018-06-18T06:17:46.499Z,18.55
2018-06-18T06:18:46.497Z,18.47
2018-06-18T06:19:46.494Z,18.56
2018-06-18T06:20:46.493Z,18.66
2018-06-18T06:21:46.494Z,18.71
2018-06-18T06:22:46.490Z,18.74
2018-06-18T06:23:46.491Z,18.89
2018-06-18T06:24:46.488Z,18.84
2018-06-18T06:25:46.488Z,18.89
2018-06-18T06:26:46.488Z,19.09
2018-06-18T06:27:46.489Z,19.00
2018-06-18T06:28:46.482Z,18.90
2018-06-18T06:29:46.484Z,18.96
2018-06-18T06:30:46.481Z,18.96
2018-06-18T06:31:46.480Z,19.00
2018-06-18T06:32:46.481Z,18.86
2018-06-18T06:33:46.477Z,18.86
2018-06-18T06:34:46.477Z,18.95
2018-06-18T06:35:46.478Z,18.98
2018-06-18T06:36:46.479Z,19.07
2018-06-18T06:37:46.475Z,18.95
2018-06-18T06:38:46.476Z,19.09
2018-06-18T06:39:46.472Z,19.19
2018-06-18T06:40:46.472Z,19.12
2018-06-18T06:41:46.470Z,19.18
2018-06-18T06:42:46.468Z,19.15
2018-06-18T06:43:46.468Z,19.22
2018-06-18T06:44:46.469Z,19.31
2018-06-18T06:45:46.465Z,19.41
2018-06-18T06:46:46.465Z,19.44
2018-06-18T06:47:46.464Z,19.54
2018-06-18T06:48:46.464Z,19.56
2018-06-18T06:49:46.462Z,19.47
2018-06-18T06:50:46.459Z,19.49
2018-06-18T06:51:46.461Z,19.44
2018-06-18T06:52:46.457Z,19.51
2018-06-18T06:53:46.458Z,19.48
2018-06-18T06:54:46.472Z,19.54
2018-06-18T06:55:46.454Z,19.62
2018-06-18T06:56:46.453Z,19.69
2018-06-18T06:57:46.454Z,19.69
2018-06-18T06:58:46.451Z,19.69
2018-06-18T06:59:46.449Z,19.64
2018-06-18T07:00:46.449Z,19.62
2018-06-18T07:01:46.448Z,19.58
2018-06-18T07:02:46.448Z,19.56
2018-06-18T07:03:46.451Z,19.67
2018-06-18T07:04:46.443Z,19.63
2018-06-18T07:05:46.444Z,19.64
2018-06-18T07:06:46.443Z,19.85
2018-06-18T07:07:46.451Z,19.79
2018-06-18T07:08:46.442Z,19.84
2018-06-18T07:09:46.439Z,19.81
2018-06-18T07:10:46.435Z,19.70
2018-06-18T07:11:46.438Z,19.77
2018-06-18T07:12:46.436Z,19.95
2018-06-18T07:13:46.492Z,19.94
2018-06-18T07:14:46.435Z,19.95
2018-06-18T07:15:46.436Z,20.21
2018-06-18T07:16:46.432Z,20.10
2018-06-18T07:17:46.434Z,20.24
2018-06-18T07:18:46.431Z,20.34
2018-06-18T07:19:46.430Z,20.41
2018-06-18T07:20:46.430Z,20.41
2018-06-18T07:21:46.426Z,20.43
2018-06-18T07:22:46.428Z,20.44
2018-06-18T07:23:46.427Z,20.43
2018-06-18T07:24:46.426Z,20.32
2018-06-18T07:25:46.428Z,20.48
2018-06-18T07:26:46.425Z,20.37
2018-06-18T07:27:46.427Z,20.55
2018-06-18T07:28:46.424Z,20.47
2018-06-18T07:29:46.424Z,20.47
2018-06-18T07:30:46.441Z,20.48
2018-06-18T07:31:46.422Z,20.40
2018-06-18T07:32:46.421Z,20.44
2018-06-18T07:33:46.419Z,20.43
2018-06-18T07:34:46.419Z,20.29
2018-06-18T07:35:46.420Z,20.31
2018-06-18T07:36:46.417Z,20.48
2018-06-18T07:37:46.418Z,20.56
2018-06-18T07:38:46.417Z,20.51
2018-06-18T07:39:46.416Z,20.48
2018-06-18T07:40:46.417Z,20.47
2018-06-18T07:41:46.416Z,20.48
2018-06-18T07:42:46.416Z,20.66
2018-06-18T07:43:46.414Z,20.69
2018-06-18T07:44:46.416Z,20.48
2018-06-18T07:45:46.414Z,20.56
2018-06-18T07:46:46.409Z,20.52
2018-06-18T07:47:46.411Z,20.65
2018-06-18T07:48:46.408Z,20.70
2018-06-18T07:49:46.407Z,20.80
2018-06-18T07:50:46.407Z,20.77
2018-06-18T07:51:46.449Z,20.78
2018-06-18T07:52:46.405Z,20.78
2018-06-18T07:53:46.406Z,20.78
2018-06-18T07:54:46.408Z,20.77
2018-06-18T07:55:46.403Z,20.65
2018-06-18T07:56:46.401Z,20.78
2018-06-18T07:57:46.401Z,20.90
2018-06-18T07:58:46.398Z,20.90
2018-06-18T07:59:46.398Z,20.92
2018-06-18T08:00:46.396Z,21.05
2018-06-18T08:01:46.399Z,21.05
2018-06-18T08:02:46.398Z,21.03
2018-06-18T08:03:46.394Z,21.00
2018-06-18T08:04:46.394Z,20.88
2018-06-18T08:05:46.397Z,20.92
2018-06-18T08:06:46.394Z,20.88
2018-06-18T08:07:46.390Z,20.96
2018-06-18T08:08:46.398Z,21.02
2018-06-18T08:09:46.438Z,21.14
2018-06-18T08:10:46.389Z,21.20
2018-06-18T08:11:46.391Z,21.20
2018-06-18T08:12:46.388Z,21.24
2018-06-18T08:13:46.389Z,21.25
2018-06-18T08:14:46.389Z,21.29
2018-06-18T08:15:46.387Z,21.33
2018-06-18T08:16:46.388Z,21.29
2018-06-18T08:17:46.388Z,21.21
2018-06-18T08:18:46.386Z,21.17
2018-06-18T08:19:46.383Z,21.15
2018-06-18T08:20:46.385Z,21.09
2018-06-18T08:21:46.382Z,21.07
2018-06-18T08:22:46.384Z,21.24
2018-06-18T08:23:46.389Z,21.25
2018-06-18T08:24:46.380Z,21.32
2018-06-18T08:25:46.390Z,21.50
2018-06-18T08:26:46.380Z,21.55
2018-06-18T08:27:46.381Z,21.69
2018-06-18T08:28:46.381Z,21.69
2018-06-18T08:29:46.380Z,21.58
2018-06-18T08:30:46.379Z,21.60
2018-06-18T08:31:46.380Z,21.48
2018-06-18T08:32:46.379Z,21.45
2018-06-18T08:33:46.381Z,21.55
2018-06-18T08:34:46.446Z,21.69
2018-06-18T08:35:46.381Z,21.72
2018-06-18T08:36:46.379Z,21.67
2018-06-18T08:37:46.381Z,21.70
2018-06-18T08:38:46.380Z,21.73
2018-06-18T08:39:46.380Z,21.80
2018-06-18T08:40:46.380Z,21.83
2018-06-18T08:41:46.378Z,21.69
2018-06-18T08:42:46.378Z,21.57
2018-06-18T08:43:46.385Z,21.55
2018-06-18T08:44:46.378Z,21.58
2018-06-18T08:45:46.377Z,21.60
2018-06-18T08:46:46.373Z,21.50
2018-06-18T08:47:46.378Z,21.29
2018-06-18T08:48:46.377Z,21.43
2018-06-18T08:49:46.378Z,21.58
2018-06-18T08:50:46.486Z,21.61
2018-06-18T08:51:46.378Z,21.60
2018-06-18T08:52:46.377Z,21.67
2018-06-18T08:53:46.383Z,21.64
2018-06-18T08:54:46.383Z,21.54
2018-06-18T08:55:46.378Z,21.60
2018-06-18T08:56:46.378Z,21.57
2018-06-18T08:57:46.380Z,21.60
2018-06-18T08:58:46.376Z,21.70
2018-06-18T08:59:46.374Z,21.75
2018-06-18T09:00:46.377Z,21.88
2018-06-18T09:01:46.380Z,21.79
2018-06-18T09:02:46.377Z,21.79
2018-06-18T09:03:46.377Z,21.99
2018-06-18T09:04:46.377Z,21.96
2018-06-18T09:05:46.375Z,21.98
2018-06-18T09:06:46.379Z,22.08
2018-06-18T09:07:46.377Z,22.04
2018-06-18T09:08:46.376Z,21.85
2018-06-18T09:09:46.375Z,21.75
2018-06-18T09:10:46.376Z,21.80
2018-06-18T09:11:46.375Z,22.11
2018-06-18T09:12:46.373Z,22.00
2018-06-18T09:13:46.374Z,22.15
2018-06-18T09:14:46.376Z,22.26
2018-06-18T09:15:46.375Z,22.32
2018-06-18T09:16:46.377Z,22.43
2018-06-18T09:17:46.374Z,22.59
2018-06-18T09:18:46.374Z,22.51
2018-06-18T09:19:46.376Z,22.51
2018-06-18T09:20:46.374Z,22.57
2018-06-18T09:21:46.375Z,22.54
2018-06-18T09:22:46.375Z,22.54
2018-06-18T09:23:46.443Z,22.75
2018-06-18T09:24:46.376Z,22.81
2018-06-18T09:25:46.377Z,22.72
2018-06-18T09:26:46.378Z,22.63
2018-06-18T09:27:46.381Z,22.47
2018-06-18T09:28:46.378Z,22.41
2018-06-18T09:29:46.379Z,22.30
2018-06-18T09:30:46.381Z,22.35
2018-06-18T09:31:46.380Z,22.36
2018-06-18T09:32:46.381Z,22.43
2018-06-18T09:33:46.381Z,22.25
2018-06-18T09:34:46.386Z,22.25
2018-06-18T09:35:46.419Z,22.44
2018-06-18T09:36:46.383Z,22.57
2018-06-18T09:37:46.388Z,22.54
2018-06-18T09:38:46.384Z,22.53
2018-06-18T09:39:46.383Z,22.59
2018-06-18T09:40:46.385Z,22.72
2018-06-18T09:41:46.386Z,22.75
2018-06-18T09:42:46.388Z,22.76
2018-06-18T09:43:46.389Z,22.75
2018-06-18T09:44:46.391Z,22.85
2018-06-18T09:45:46.391Z,22.99
2018-06-18T09:46:46.392Z,22.83
2018-06-18T09:47:46.395Z,22.87
2018-06-18T09:48:46.394Z,23.09
2018-06-18T09:49:46.394Z,23.23
2018-06-18T09:50:46.398Z,23.27
2018-06-18T09:51:46.398Z,23.02
2018-06-18T09:52:46.399Z,22.90
2018-06-18T09:53:46.398Z,22.87
2018-06-18T09:54:46.400Z,22.80
2018-06-18T09:55:46.434Z,22.84
2018-06-18T09:56:46.395Z,23.00
2018-06-18T09:57:46.401Z,23.24
2018-06-18T09:58:46.408Z,23.24
2018-06-18T09:59:46.405Z,23.40
2018-06-18T10:00:46.406Z,23.48
2018-06-18T10:01:46.408Z,23.40
2018-06-18T10:02:46.406Z,23.54
2018-06-18T10:03:46.410Z,23.78
2018-06-18T10:04:46.409Z,23.86
2018-06-18T10:05:46.412Z,23.73
2018-06-18T10:06:46.414Z,23.74
2018-06-18T10:07:46.415Z,23.46
2018-06-18T10:08:46.506Z,23.43
2018-06-18T10:09:46.417Z,23.24
2018-06-18T10:10:46.418Z,23.34
2018-06-18T10:11:46.422Z,23.32
2018-06-18T10:12:46.422Z,23.41
2018-06-18T10:13:46.424Z,23.74
2018-06-18T10:14:46.427Z,23.63
2018-06-18T10:15:46.425Z,23.65
2018-06-18T10:16:46.426Z,23.41
2018-06-18T10:17:46.428Z,23.44
2018-06-18T10:18:46.432Z,23.51
2018-06-18T10:19:46.433Z,23.88
2018-06-18T10:20:46.431Z,24.06
2018-06-18T10:21:46.432Z,24.11
2018-06-18T10:22:46.436Z,24.06
2018-06-18T10:23:46.441Z,24.02
2018-06-18T10:24:46.439Z,23.91
2018-06-18T10:25:46.440Z,23.92
2018-06-18T10:26:46.443Z,24.05
2018-06-18T10:27:46.445Z,24.01
2018-06-18T10:28:46.445Z,23.86
2018-06-18T10:29:46.451Z,23.88
2018-06-18T10:30:46.449Z,23.92
2018-06-18T10:31:46.452Z,23.96
2018-06-18T10:32:46.460Z,24.01
2018-06-18T10:33:46.455Z,23.99
2018-06-18T10:34:46.458Z,24.02
2018-06-18T10:35:46.459Z,23.92
2018-06-18T10:36:46.461Z,23.81
2018-06-18T10:37:46.461Z,23.84
2018-06-18T10:38:46.465Z,23.98
2018-06-18T10:39:46.468Z,24.21
2018-06-18T10:40:46.472Z,24.11
2018-06-18T10:41:46.470Z,24.05
2018-06-18T10:42:46.476Z,23.88
2018-06-18T10:43:46.473Z,23.87
2018-06-18T10:44:46.481Z,23.83
2018-06-18T10:45:46.478Z,23.76
2018-06-18T10:46:46.476Z,23.65
2018-06-18T10:47:46.480Z,23.61
2018-06-18T10:48:46.483Z,23.63
2018-06-18T10:49:46.486Z,23.46
2018-06-18T10:50:46.486Z,23.37
2018-06-18T10:51:46.489Z,23.44
2018-06-18T10:52:46.491Z,23.43
2018-06-18T10:53:46.491Z,23.77
2018-06-18T10:54:46.493Z,23.86
2018-06-18T10:55:46.496Z,23.95
2018-06-18T10:56:46.497Z,23.98
2018-06-18T10:57:46.500Z,23.84
2018-06-18T10:58:46.502Z,23.80
2018-06-18T10:59:46.503Z,23.68
2018-06-18T11:00:46.505Z,23.58
2018-06-18T11:01:46.508Z,23.73
2018-06-18T11:02:46.508Z,23.78
2018-06-18T11:03:46.558Z,23.86
2018-06-18T11:04:46.514Z,23.87
2018-06-18T11:05:46.517Z,24.05
2018-06-18T11:06:46.520Z,23.96
2018-06-18T11:07:46.523Z,23.83
2018-06-18T11:08:46.523Z,23.65
2018-06-18T11:09:46.527Z,23.76
2018-06-18T11:10:46.527Z,23.84
2018-06-18T11:11:46.532Z,23.88
2018-06-18T11:12:46.532Z,24.10
2018-06-18T11:13:46.535Z,24.05
2018-06-18T11:14:46.538Z,24.29
2018-06-18T11:15:46.566Z,24.18
2018-06-18T11:16:46.702Z,24.05
2018-06-18T11:17:46.545Z,23.87
2018-06-18T11:18:46.548Z,23.71
2018-06-18T11:19:46.550Z,23.78
2018-06-18T11:20:46.553Z,23.76
2018-06-18T11:21:46.582Z,23.59
2018-06-18T11:22:46.572Z,23.58
2018-06-18T11:23:46.559Z,23.71
2018-06-18T11:24:46.562Z,23.69
2018-06-18T11:25:46.563Z,23.51
2018-06-18T11:26:46.584Z,23.44
2018-06-18T11:27:46.570Z,23.55
2018-06-18T11:28:46.636Z,23.69
2018-06-18T11:29:46.573Z,23.68
2018-06-18T11:30:46.580Z,23.66
2018-06-18T11:31:46.578Z,23.62
2018-06-18T11:32:46.582Z,23.68
2018-06-18T11:33:46.581Z,23.47
2018-06-18T11:34:46.586Z,23.56
2018-06-18T11:35:46.588Z,23.71
2018-06-18T11:36:46.605Z,23.80
2018-06-18T11:37:46.601Z,23.73
2018-06-18T11:38:46.596Z,23.76
2018-06-18T11:39:46.602Z,23.77
2018-06-18T11:40:46.654Z,23.92
2018-06-18T11:41:46.664Z,23.83
2018-06-18T11:42:46.606Z,23.84
2018-06-18T11:43:46.737Z,23.83
2018-06-18T11:44:46.611Z,23.71
2018-06-18T11:45:46.620Z,23.63
2018-06-18T11:46:46.616Z,23.55
2018-06-18T11:47:46.618Z,23.46
2018-06-18T11:48:46.622Z,23.47
2018-06-18T11:49:46.622Z,23.44
2018-06-18T11:50:46.625Z,23.40
2018-06-18T11:51:46.630Z,23.40
2018-06-18T11:52:46.630Z,23.55
2018-06-18T11:53:46.632Z,23.43
2018-06-18T11:54:46.637Z,23.32
2018-06-18T11:55:46.668Z,23.34
2018-06-18T11:56:46.638Z,23.31
2018-06-18T11:57:46.643Z,23.27
2018-06-18T11:58:46.645Z,23.36
2018-06-18T11:59:46.646Z,23.32
2018-06-18T12:00:46.649Z,23.23
2018-06-18T12:01:46.649Z,23.36
2018-06-18T12:02:46.652Z,23.32
2018-06-18T12:03:46.664Z,23.28
2018-06-18T12:04:46.657Z,23.32
2018-06-18T12:05:46.659Z,23.31
2018-06-18T12:06:46.666Z,23.36
2018-06-18T12:07:46.666Z,23.39
2018-06-18T12:08:46.667Z,23.37
2018-06-18T12:09:46.745Z,23.25
2018-06-18T12:10:46.672Z,23.25
2018-06-18T12:11:46.675Z,23.25
2018-06-18T12:12:46.678Z,23.27
2018-06-18T12:13:46.678Z,23.43
2018-06-18T12:14:46.682Z,23.51
2018-06-18T12:15:46.682Z,23.56
2018-06-18T12:16:46.697Z,23.61
2018-06-18T12:17:46.688Z,23.77
2018-06-18T12:18:46.692Z,23.78
2018-06-18T12:19:46.691Z,23.88
2018-06-18T12:20:46.694Z,24.02
2018-06-18T12:21:46.698Z,24.11
2018-06-18T12:22:46.702Z,24.16
2018-06-18T12:23:46.704Z,24.20
2018-06-18T12:24:46.703Z,24.20
2018-06-18T12:25:46.707Z,24.23
2018-06-18T12:26:46.709Z,24.39
2018-06-18T12:27:46.713Z,24.55
2018-06-18T12:28:46.715Z,24.55
2018-06-18T12:29:46.718Z,24.57
2018-06-18T12:30:46.721Z,24.86
2018-06-18T12:31:46.723Z,24.91
2018-06-18T12:32:46.727Z,25.07
2018-06-18T12:33:46.731Z,25.06
2018-06-18T12:34:46.735Z,25.06
2018-06-18T12:35:46.737Z,25.06
2018-06-18T12:36:46.741Z,24.60
2018-06-18T12:37:46.747Z,24.42
2018-06-18T12:38:46.746Z,24.69
2018-06-18T12:39:46.750Z,24.91
2018-06-18T12:40:46.752Z,25.03
2018-06-18T12:41:46.756Z,24.96
2018-06-18T12:42:46.760Z,25.01
2018-06-18T12:43:46.763Z,24.98
2018-06-18T12:44:46.766Z,24.80
2018-06-18T12:45:46.770Z,24.88
2018-06-18T12:46:46.799Z,25.13
2018-06-18T12:47:46.788Z,25.10
2018-06-18T12:48:46.782Z,25.14
2018-06-18T12:49:46.782Z,24.98
2018-06-18T12:50:46.788Z,24.80
2018-06-18T12:51:46.793Z,25.01
2018-06-18T12:52:46.805Z,24.92